Terminal Aerodrome Forecast
Issued by NWS

Home | Current Version | Previous Version | Text Only | Print | Product List | Glossary Off
Versions: 1 2 3 4 5 6 7 8 9 10 11 12 13 14 15 16 17 18 19 20 21 22 23

000
FTUS43 KPAH 232320
TAFCGI
TAF
KCGI 232320Z 2400/2424 VRB06KT P6SM SCT080 BKN120
     FM240300 29010KT P6SM SCT080
     FM241400 28015G27KT P6SM SCT040 BKN120
     FM241800 30016G28KT P6SM BKN050=

USA.gov is the U.S. government's official web portal to all federal, state and local government web resources and services.